sensor_id;sensor_type;location;lat;lon;timestamp;P1;durP1;ratioP1;P2;durP2;ratioP2
57071;SDS011;42956;51.366;11.298;2023-07-13T00:00:09;9.05;;;2.00;;
57071;SDS011;42956;51.366;11.298;2023-07-13T00:02:39;7.15;;;1.27;;
57071;SDS011;42956;51.366;11.298;2023-07-13T00:05:09;3.55;;;1.58;;
57071;SDS011;42956;51.366;11.298;2023-07-13T00:07:39;4.32;;;1.98;;
57071;SDS011;42956;51.366;11.298;2023-07-13T00:10:12;1.40;;;1.27;;
57071;SDS011;42956;51.366;11.298;2023-07-13T00:12:41;1.92;;;1.50;;
57071;SDS011;42956;51.366;11.298;2023-07-13T00:15:12;3.03;;;1.48;;
57071;SDS011;42956;51.366;11.298;2023-07-13T00:17:43;4.85;;;1.52;;
57071;SDS011;42956;51.366;11.298;2023-07-13T00:20:14;2.95;;;1.90;;
57071;SDS011;42956;51.366;11.298;2023-07-13T00:22:44;5.30;;;1.52;;
57071;SDS011;42956;51.366;11.298;2023-07-13T00:25:17;5.07;;;1.75;;
57071;SDS011;42956;51.366;11.298;2023-07-13T00:27:47;3.60;;;1.60;;
57071;SDS011;42956;51.366;11.298;2023-07-13T00:30:18;4.53;;;1.70;;
57071;SDS011;42956;51.366;11.298;2023-07-13T00:32:48;1.70;;;1.40;;
57071;SDS011;42956;51.366;11.298;2023-07-13T00:35:34;3.08;;;1.58;;
57071;SDS011;42956;51.366;11.298;2023-07-13T00:38:05;23.55;;;2.42;;
57071;SDS011;42956;51.366;11.298;2023-07-13T00:40:37;2.72;;;1.88;;
57071;SDS011;42956;51.366;11.298;2023-07-13T00:43:09;5.05;;;1.55;;
57071;SDS011;42956;51.366;11.298;2023-07-13T00:48:26;4.22;;;2.10;;
57071;SDS011;42956;51.366;11.298;2023-07-13T00:50:56;7.53;;;1.85;;
57071;SDS011;42956;51.366;11.298;2023-07-13T00:53:28;4.78;;;1.52;;
57071;SDS011;42956;51.366;11.298;2023-07-13T00:56:02;3.78;;;1.67;;
57071;SDS011;42956;51.366;11.298;2023-07-13T00:58:32;3.13;;;1.80;;
57071;SDS011;42956;51.366;11.298;2023-07-13T01:01:02;4.70;;;2.00;;
57071;SDS011;42956;51.366;11.298;2023-07-13T01:03:32;6.80;;;2.00;;
57071;SDS011;42956;51.366;11.298;2023-07-13T01:06:02;1.90;;;1.33;;
57071;SDS011;42956;51.366;11.298;2023-07-13T01:08:32;2.33;;;1.58;;
57071;SDS011;42956;51.366;11.298;2023-07-13T01:11:04;2.63;;;1.70;;
57071;SDS011;42956;51.366;11.298;2023-07-13T01:13:35;3.20;;;1.98;;
57071;SDS011;42956;51.366;11.298;2023-07-13T01:16:05;3.05;;;1.15;;
57071;SDS011;42956;51.366;11.298;2023-07-13T01:18:42;4.32;;;2.25;;
57071;SDS011;42956;51.366;11.298;2023-07-13T01:21:14;3.03;;;1.55;;
57071;SDS011;42956;51.366;11.298;2023-07-13T01:23:45;4.90;;;1.80;;
57071;SDS011;42956;51.366;11.298;2023-07-13T01:26:15;2.17;;;1.60;;
57071;SDS011;42956;51.366;11.298;2023-07-13T01:28:45;9.80;;;2.70;;
57071;SDS011;42956;51.366;11.298;2023-07-13T01:31:15;3.40;;;1.73;;
57071;SDS011;42956;51.366;11.298;2023-07-13T01:33:45;2.78;;;1.92;;
57071;SDS011;42956;51.366;11.298;2023-07-13T01:36:18;4.70;;;1.42;;
57071;SDS011;42956;51.366;11.298;2023-07-13T01:38:48;4.78;;;1.95;;
57071;SDS011;42956;51.366;11.298;2023-07-13T01:41:18;7.25;;;2.00;;
57071;SDS011;42956;51.366;11.298;2023-07-13T01:43:48;7.50;;;1.95;;
57071;SDS011;42956;51.366;11.298;2023-07-13T01:46:18;3.50;;;1.88;;
57071;SDS011;42956;51.366;11.298;2023-07-13T01:48:50;3.08;;;1.70;;
57071;SDS011;42956;51.366;11.298;2023-07-13T01:51:22;5.10;;;1.67;;
57071;SDS011;42956;51.366;11.298;2023-07-13T01:53:52;3.45;;;1.55;;
57071;SDS011;42956;51.366;11.298;2023-07-13T01:56:22;4.43;;;2.22;;
57071;SDS011;42956;51.366;11.298;2023-07-13T01:58:52;4.07;;;2.00;;
57071;SDS011;42956;51.366;11.298;2023-07-13T02:01:22;7.95;;;1.77;;
57071;SDS011;42956;51.366;11.298;2023-07-13T02:03:52;4.60;;;2.03;;
57071;SDS011;42956;51.366;11.298;2023-07-13T02:06:24;4.82;;;1.85;;
57071;SDS011;42956;51.366;11.298;2023-07-13T02:08:54;4.53;;;1.50;;
57071;SDS011;42956;51.366;11.298;2023-07-13T02:11:24;6.40;;;2.08;;
57071;SDS011;42956;51.366;11.298;2023-07-13T02:13:59;4.18;;;1.75;;
57071;SDS011;42956;51.366;11.298;2023-07-13T02:16:30;5.20;;;2.38;;
57071;SDS011;42956;51.366;11.298;2023-07-13T02:19:00;2.72;;;1.50;;
57071;SDS011;42956;51.366;11.298;2023-07-13T02:21:32;2.28;;;1.65;;
57071;SDS011;42956;51.366;11.298;2023-07-13T02:24:03;5.38;;;1.63;;
57071;SDS011;42956;51.366;11.298;2023-07-13T02:26:33;4.18;;;2.10;;
57071;SDS011;42956;51.366;11.298;2023-07-13T02:29:03;3.40;;;1.67;;
57071;SDS011;42956;51.366;11.298;2023-07-13T02:31:33;3.75;;;2.30;;
57071;SDS011;42956;51.366;11.298;2023-07-13T02:34:03;4.93;;;1.95;;
57071;SDS011;42956;51.366;11.298;2023-07-13T02:36:35;3.42;;;2.33;;
57071;SDS011;42956;51.366;11.298;2023-07-13T02:39:05;4.57;;;2.10;;
57071;SDS011;42956;51.366;11.298;2023-07-13T02:41:35;2.03;;;1.67;;
57071;SDS011;42956;51.366;11.298;2023-07-13T02:44:05;3.97;;;1.98;;
57071;SDS011;42956;51.366;11.298;2023-07-13T02:46:36;5.47;;;2.08;;
57071;SDS011;42956;51.366;11.298;2023-07-13T02:49:06;5.13;;;2.15;;
57071;SDS011;42956;51.366;11.298;2023-07-13T02:51:39;4.55;;;2.25;;
57071;SDS011;42956;51.366;11.298;2023-07-13T02:54:09;6.47;;;2.22;;
57071;SDS011;42956;51.366;11.298;2023-07-13T02:56:40;3.65;;;2.15;;
57071;SDS011;42956;51.366;11.298;2023-07-13T02:59:10;3.65;;;1.75;;
57071;SDS011;42956;51.366;11.298;2023-07-13T03:01:40;5.63;;;1.85;;
57071;SDS011;42956;51.366;11.298;2023-07-13T03:04:10;2.13;;;1.45;;
57071;SDS011;42956;51.366;11.298;2023-07-13T03:06:43;3.00;;;2.17;;
57071;SDS011;42956;51.366;11.298;2023-07-13T03:09:13;3.90;;;2.22;;
57071;SDS011;42956;51.366;11.298;2023-07-13T03:11:43;13.38;;;2.35;;
57071;SDS011;42956;51.366;11.298;2023-07-13T03:14:13;2.80;;;2.08;;
57071;SDS011;42956;51.366;11.298;2023-07-13T03:16:43;3.10;;;2.30;;
57071;SDS011;42956;51.366;11.298;2023-07-13T03:19:13;5.78;;;1.92;;
57071;SDS011;42956;51.366;11.298;2023-07-13T03:21:46;6.95;;;2.30;;
57071;SDS011;42956;51.366;11.298;2023-07-13T03:24:16;2.15;;;1.60;;
57071;SDS011;42956;51.366;11.298;2023-07-13T03:26:46;3.92;;;2.30;;
57071;SDS011;42956;51.366;11.298;2023-07-13T03:29:16;3.65;;;2.20;;
57071;SDS011;42956;51.366;11.298;2023-07-13T03:31:46;4.10;;;2.28;;
57071;SDS011;42956;51.366;11.298;2023-07-13T03:34:15;7.05;;;2.78;;
57071;SDS011;42956;51.366;11.298;2023-07-13T03:36:48;7.35;;;2.92;;
57071;SDS011;42956;51.366;11.298;2023-07-13T03:39:18;6.35;;;3.08;;
57071;SDS011;42956;51.366;11.298;2023-07-13T03:41:48;4.32;;;1.92;;
57071;SDS011;42956;51.366;11.298;2023-07-13T03:44:18;3.83;;;1.73;;
57071;SDS011;42956;51.366;11.298;2023-07-13T03:46:48;3.92;;;1.77;;
57071;SDS011;42956;51.366;11.298;2023-07-13T03:49:18;4.78;;;2.30;;
57071;SDS011;42956;51.366;11.298;2023-07-13T03:51:50;2.10;;;1.55;;
57071;SDS011;42956;51.366;11.298;2023-07-13T03:54:20;3.22;;;1.77;;
57071;SDS011;42956;51.366;11.298;2023-07-13T03:56:50;4.32;;;1.52;;
57071;SDS011;42956;51.366;11.298;2023-07-13T03:59:20;3.60;;;1.90;;
57071;SDS011;42956;51.366;11.298;2023-07-13T04:01:50;3.80;;;2.10;;
57071;SDS011;42956;51.366;11.298;2023-07-13T04:04:20;4.18;;;2.15;;
57071;SDS011;42956;51.366;11.298;2023-07-13T04:06:53;1.48;;;1.33;;
57071;SDS011;42956;51.366;11.298;2023-07-13T04:09:23;3.35;;;1.45;;
57071;SDS011;42956;51.366;11.298;2023-07-13T04:11:53;3.83;;;1.92;;
57071;SDS011;42956;51.366;11.298;2023-07-13T04:14:23;3.95;;;1.55;;
57071;SDS011;42956;51.366;11.298;2023-07-13T04:16:53;3.05;;;1.90;;
57071;SDS011;42956;51.366;11.298;2023-07-13T04:19:23;3.13;;;2.08;;
57071;SDS011;42956;51.366;11.298;2023-07-13T04:21:55;3.35;;;1.73;;
57071;SDS011;42956;51.366;11.298;2023-07-13T04:24:25;6.25;;;2.25;;
57071;SDS011;42956;51.366;11.298;2023-07-13T04:26:55;5.60;;;2.22;;
57071;SDS011;42956;51.366;11.298;2023-07-13T04:29:26;5.15;;;1.98;;
57071;SDS011;42956;51.366;11.298;2023-07-13T04:31:57;5.35;;;2.20;;
57071;SDS011;42956;51.366;11.298;2023-07-13T04:34:26;2.22;;;1.80;;
57071;SDS011;42956;51.366;11.298;2023-07-13T04:36:59;3.80;;;1.75;;
57071;SDS011;42956;51.366;11.298;2023-07-13T04:39:29;2.20;;;1.98;;
57071;SDS011;42956;51.366;11.298;2023-07-13T04:41:59;2.67;;;1.80;;
57071;SDS011;42956;51.366;11.298;2023-07-13T04:44:29;2.67;;;1.83;;
57071;SDS011;42956;51.366;11.298;2023-07-13T04:46:59;4.05;;;2.05;;
57071;SDS011;42956;51.366;11.298;2023-07-13T04:49:29;4.88;;;2.47;;
57071;SDS011;42956;51.366;11.298;2023-07-13T04:52:01;3.78;;;2.33;;
57071;SDS011;42956;51.366;11.298;2023-07-13T04:54:31;4.40;;;2.80;;
57071;SDS011;42956;51.366;11.298;2023-07-13T04:57:01;5.30;;;2.53;;
57071;SDS011;42956;51.366;11.298;2023-07-13T04:59:31;7.93;;;2.60;;
57071;SDS011;42956;51.366;11.298;2023-07-13T05:02:01;6.90;;;2.22;;
57071;SDS011;42956;51.366;11.298;2023-07-13T05:04:32;6.65;;;1.83;;
57071;SDS011;42956;51.366;11.298;2023-07-13T05:07:04;4.70;;;2.08;;
57071;SDS011;42956;51.366;11.298;2023-07-13T05:09:34;3.22;;;1.70;;
57071;SDS011;42956;51.366;11.298;2023-07-13T05:12:05;3.60;;;2.30;;
57071;SDS011;42956;51.366;11.298;2023-07-13T05:14:35;7.00;;;2.20;;
57071;SDS011;42956;51.366;11.298;2023-07-13T05:17:05;1.88;;;1.65;;
57071;SDS011;42956;51.366;11.298;2023-07-13T05:19:35;3.13;;;1.58;;
57071;SDS011;42956;51.366;11.298;2023-07-13T05:22:07;5.00;;;2.40;;
57071;SDS011;42956;51.366;11.298;2023-07-13T05:24:37;5.07;;;1.92;;
57071;SDS011;42956;51.366;11.298;2023-07-13T05:27:08;3.90;;;2.08;;
57071;SDS011;42956;51.366;11.298;2023-07-13T05:29:37;2.90;;;1.75;;
57071;SDS011;42956;51.366;11.298;2023-07-13T05:32:07;4.50;;;2.40;;
57071;SDS011;42956;51.366;11.298;2023-07-13T05:34:37;4.47;;;2.22;;
57071;SDS011;42956;51.366;11.298;2023-07-13T05:37:10;3.63;;;2.33;;
57071;SDS011;42956;51.366;11.298;2023-07-13T05:39:40;6.93;;;2.20;;
57071;SDS011;42956;51.366;11.298;2023-07-13T05:42:10;10.02;;;2.97;;
57071;SDS011;42956;51.366;11.298;2023-07-13T05:44:40;5.72;;;2.28;;
57071;SDS011;42956;51.366;11.298;2023-07-13T05:47:10;4.18;;;2.20;;
57071;SDS011;42956;51.366;11.298;2023-07-13T05:49:41;4.68;;;2.05;;
57071;SDS011;42956;51.366;11.298;2023-07-13T05:52:13;2.72;;;1.95;;
57071;SDS011;42956;51.366;11.298;2023-07-13T05:54:43;10.10;;;4.68;;
57071;SDS011;42956;51.366;11.298;2023-07-13T05:57:13;4.38;;;2.15;;
57071;SDS011;42956;51.366;11.298;2023-07-13T05:59:43;4.55;;;1.40;;
57071;SDS011;42956;51.366;11.298;2023-07-13T06:02:13;2.95;;;1.67;;
57071;SDS011;42956;51.366;11.298;2023-07-13T06:04:43;4.78;;;1.65;;
57071;SDS011;42956;51.366;11.298;2023-07-13T06:07:15;4.90;;;1.73;;
57071;SDS011;42956;51.366;11.298;2023-07-13T06:09:45;6.28;;;1.45;;
57071;SDS011;42956;51.366;11.298;2023-07-13T06:12:15;4.47;;;1.98;;
57071;SDS011;42956;51.366;11.298;2023-07-13T06:14:45;6.70;;;1.83;;
57071;SDS011;42956;51.366;11.298;2023-07-13T06:17:15;5.32;;;1.70;;
57071;SDS011;42956;51.366;11.298;2023-07-13T06:19:45;5.72;;;2.30;;
57071;SDS011;42956;51.366;11.298;2023-07-13T06:22:17;4.13;;;1.60;;
57071;SDS011;42956;51.366;11.298;2023-07-13T06:24:47;6.15;;;2.05;;
57071;SDS011;42956;51.366;11.298;2023-07-13T06:27:17;6.22;;;1.60;;
57071;SDS011;42956;51.366;11.298;2023-07-13T06:29:47;4.32;;;1.48;;
57071;SDS011;42956;51.366;11.298;2023-07-13T06:32:17;3.30;;;1.50;;
57071;SDS011;42956;51.366;11.298;2023-07-13T06:34:47;5.50;;;1.42;;
57071;SDS011;42956;51.366;11.298;2023-07-13T06:37:21;5.25;;;1.50;;
57071;SDS011;42956;51.366;11.298;2023-07-13T06:39:51;4.05;;;1.50;;
57071;SDS011;42956;51.366;11.298;2023-07-13T06:42:21;3.40;;;2.03;;
57071;SDS011;42956;51.366;11.298;2023-07-13T06:44:51;9.95;;;1.90;;
57071;SDS011;42956;51.366;11.298;2023-07-13T06:47:21;3.70;;;1.45;;
57071;SDS011;42956;51.366;11.298;2023-07-13T06:49:51;7.13;;;1.58;;
57071;SDS011;42956;51.366;11.298;2023-07-13T06:52:23;6.38;;;1.60;;
57071;SDS011;42956;51.366;11.298;2023-07-13T06:54:53;7.22;;;1.88;;
57071;SDS011;42956;51.366;11.298;2023-07-13T06:57:23;7.03;;;1.75;;
57071;SDS011;42956;51.366;11.298;2023-07-13T06:59:53;4.57;;;1.65;;
57071;SDS011;42956;51.366;11.298;2023-07-13T07:02:24;5.72;;;1.80;;
57071;SDS011;42956;51.366;11.298;2023-07-13T07:04:53;8.27;;;1.70;;
57071;SDS011;42956;51.366;11.298;2023-07-13T07:07:26;8.23;;;1.77;;
57071;SDS011;42956;51.366;11.298;2023-07-13T07:09:56;3.65;;;1.80;;
57071;SDS011;42956;51.366;11.298;2023-07-13T07:12:26;7.18;;;1.77;;
57071;SDS011;42956;51.366;11.298;2023-07-13T07:14:57;5.13;;;1.70;;
57071;SDS011;42956;51.366;11.298;2023-07-13T07:17:27;9.18;;;2.08;;
57071;SDS011;42956;51.366;11.298;2023-07-13T07:19:57;4.38;;;1.48;;
57071;SDS011;42956;51.366;11.298;2023-07-13T07:22:30;6.85;;;1.45;;
57071;SDS011;42956;51.366;11.298;2023-07-13T07:25:02;2.90;;;1.20;;
57071;SDS011;42956;51.366;11.298;2023-07-13T07:30:06;6.32;;;2.08;;
57071;SDS011;42956;51.366;11.298;2023-07-13T07:32:39;4.78;;;1.60;;
57071;SDS011;42956;51.366;11.298;2023-07-13T07:35:23;5.38;;;2.35;;
57071;SDS011;42956;51.366;11.298;2023-07-13T07:38:02;7.30;;;2.80;;
57071;SDS011;42956;51.366;11.298;2023-07-13T07:40:32;11.00;;;2.30;;
57071;SDS011;42956;51.366;11.298;2023-07-13T07:43:12;13.35;;;1.80;;
57071;SDS011;42956;51.366;11.298;2023-07-13T07:45:43;9.60;;;1.67;;
57071;SDS011;42956;51.366;11.298;2023-07-13T07:48:14;8.85;;;1.77;;
57071;SDS011;42956;51.366;11.298;2023-07-13T07:50:44;6.30;;;1.48;;
57071;SDS011;42956;51.366;11.298;2023-07-13T07:53:16;7.68;;;1.90;;
57071;SDS011;42956;51.366;11.298;2023-07-13T07:55:46;11.50;;;2.45;;
57071;SDS011;42956;51.366;11.298;2023-07-13T07:58:19;8.25;;;1.90;;
57071;SDS011;42956;51.366;11.298;2023-07-13T08:03:24;5.35;;;1.63;;
57071;SDS011;42956;51.366;11.298;2023-07-13T08:06:17;7.28;;;1.80;;
57071;SDS011;42956;51.366;11.298;2023-07-13T08:08:55;6.85;;;1.90;;
57071;SDS011;42956;51.366;11.298;2023-07-13T08:11:25;5.70;;;2.10;;
57071;SDS011;42956;51.366;11.298;2023-07-13T08:13:57;4.35;;;1.83;;
57071;SDS011;42956;51.366;11.298;2023-07-13T08:16:27;2.25;;;1.20;;
57071;SDS011;42956;51.366;11.298;2023-07-13T08:19:00;3.40;;;1.50;;
57071;SDS011;42956;51.366;11.298;2023-07-13T08:21:31;5.25;;;2.05;;
57071;SDS011;42956;51.366;11.298;2023-07-13T08:24:03;10.35;;;2.33;;
57071;SDS011;42956;51.366;11.298;2023-07-13T08:26:33;4.32;;;2.03;;
57071;SDS011;42956;51.366;11.298;2023-07-13T08:29:03;5.55;;;1.80;;
57071;SDS011;42956;51.366;11.298;2023-07-13T08:31:33;5.38;;;1.98;;
57071;SDS011;42956;51.366;11.298;2023-07-13T08:34:03;7.80;;;2.67;;
57071;SDS011;42956;51.366;11.298;2023-07-13T08:36:33;6.25;;;2.03;;
57071;SDS011;42956;51.366;11.298;2023-07-13T08:39:06;6.38;;;2.15;;
57071;SDS011;42956;51.366;11.298;2023-07-13T08:41:36;3.88;;;2.10;;
57071;SDS011;42956;51.366;11.298;2023-07-13T08:44:07;18.50;;;2.20;;
57071;SDS011;42956;51.366;11.298;2023-07-13T08:46:45;2.65;;;1.65;;
57071;SDS011;42956;51.366;11.298;2023-07-13T08:49:17;9.48;;;2.55;;
57071;SDS011;42956;51.366;11.298;2023-07-13T08:51:52;2.80;;;1.90;;
57071;SDS011;42956;51.366;11.298;2023-07-13T08:54:26;2.83;;;1.30;;
57071;SDS011;42956;51.366;11.298;2023-07-13T08:56:58;6.47;;;2.35;;
57071;SDS011;42956;51.366;11.298;2023-07-13T08:59:30;5.72;;;1.55;;
57071;SDS011;42956;51.366;11.298;2023-07-13T09:02:05;5.90;;;1.50;;
57071;SDS011;42956;51.366;11.298;2023-07-13T09:04:39;2.00;;;1.17;;
57071;SDS011;42956;51.366;11.298;2023-07-13T09:07:12;3.88;;;2.00;;
57071;SDS011;42956;51.366;11.298;2023-07-13T09:09:48;6.53;;;2.30;;
57071;SDS011;42956;51.366;11.298;2023-07-13T09:12:23;6.35;;;1.77;;
57071;SDS011;42956;51.366;11.298;2023-07-13T09:14:55;3.63;;;1.33;;
57071;SDS011;42956;51.366;11.298;2023-07-13T09:17:27;10.63;;;1.63;;
57071;SDS011;42956;51.366;11.298;2023-07-13T09:19:58;9.43;;;1.63;;
57071;SDS011;42956;51.366;11.298;2023-07-13T09:22:31;4.40;;;1.20;;
57071;SDS011;42956;51.366;11.298;2023-07-13T09:27:52;4.03;;;0.95;;
57071;SDS011;42956;51.366;11.298;2023-07-13T09:30:28;3.72;;;1.33;;
57071;SDS011;42956;51.366;11.298;2023-07-13T09:32:59;3.92;;;1.52;;
57071;SDS011;42956;51.366;11.298;2023-07-13T09:35:29;4.53;;;1.30;;
57071;SDS011;42956;51.366;11.298;2023-07-13T09:38:02;3.08;;;0.93;;
57071;SDS011;42956;51.366;11.298;2023-07-13T09:40:39;1.73;;;0.98;;
57071;SDS011;42956;51.366;11.298;2023-07-13T09:43:10;4.53;;;0.90;;
57071;SDS011;42956;51.366;11.298;2023-07-13T09:45:43;4.22;;;1.13;;
57071;SDS011;42956;51.366;11.298;2023-07-13T09:48:16;3.25;;;0.90;;
57071;SDS011;42956;51.366;11.298;2023-07-13T09:50:46;2.78;;;0.90;;
57071;SDS011;42956;51.366;11.298;2023-07-13T09:53:18;3.50;;;0.77;;
57071;SDS011;42956;51.366;11.298;2023-07-13T09:55:52;1.80;;;0.82;;
57071;SDS011;42956;51.366;11.298;2023-07-13T09:58:24;3.20;;;0.70;;
57071;SDS011;42956;51.366;11.298;2023-07-13T10:00:55;5.03;;;1.10;;
57071;SDS011;42956;51.366;11.298;2023-07-13T10:03:26;1.75;;;0.90;;
57071;SDS011;42956;51.366;11.298;2023-07-13T10:06:01;2.63;;;0.98;;
57071;SDS011;42956;51.366;11.298;2023-07-13T10:08:35;3.65;;;1.00;;
57071;SDS011;42956;51.366;11.298;2023-07-13T10:11:11;3.00;;;0.77;;
57071;SDS011;42956;51.366;11.298;2023-07-13T10:13:42;3.15;;;0.80;;
57071;SDS011;42956;51.366;11.298;2023-07-13T10:16:14;2.40;;;0.90;;
57071;SDS011;42956;51.366;11.298;2023-07-13T10:18:45;4.70;;;0.80;;
57071;SDS011;42956;51.366;11.298;2023-07-13T10:21:17;3.33;;;1.05;;
57071;SDS011;42956;51.366;11.298;2023-07-13T10:24:03;3.75;;;0.90;;
57071;SDS011;42956;51.366;11.298;2023-07-13T10:26:37;5.40;;;1.00;;
57071;SDS011;42956;51.366;11.298;2023-07-13T10:29:11;7.97;;;0.93;;
57071;SDS011;42956;51.366;11.298;2023-07-13T10:31:44;4.47;;;1.10;;
57071;SDS011;42956;51.366;11.298;2023-07-13T10:34:14;2.33;;;0.80;;
57071;SDS011;42956;51.366;11.298;2023-07-13T10:36:45;3.40;;;1.50;;
57071;SDS011;42956;51.366;11.298;2023-07-13T10:39:17;4.97;;;0.90;;
57071;SDS011;42956;51.366;11.298;2023-07-13T10:41:52;2.90;;;0.63;;
57071;SDS011;42956;51.366;11.298;2023-07-13T10:44:24;6.47;;;0.85;;
57071;SDS011;42956;51.366;11.298;2023-07-13T10:46:55;2.28;;;0.90;;
57071;SDS011;42956;51.366;11.298;2023-07-13T10:49:27;1.42;;;0.73;;
57071;SDS011;42956;51.366;11.298;2023-07-13T10:51:58;2.75;;;0.85;;
57071;SDS011;42956;51.366;11.298;2023-07-13T10:54:30;1.10;;;0.70;;
57071;SDS011;42956;51.366;11.298;2023-07-13T10:57:12;1.50;;;0.80;;
57071;SDS011;42956;51.366;11.298;2023-07-13T10:59:43;1.75;;;0.90;;
57071;SDS011;42956;51.366;11.298;2023-07-13T11:02:21;5.88;;;0.93;;
57071;SDS011;42956;51.366;11.298;2023-07-13T11:04:52;2.60;;;1.10;;
57071;SDS011;42956;51.366;11.298;2023-07-13T11:07:24;2.22;;;0.73;;
57071;SDS011;42956;51.366;11.298;2023-07-13T11:09:55;5.05;;;0.95;;
57071;SDS011;42956;51.366;11.298;2023-07-13T11:12:48;2.97;;;1.00;;
57071;SDS011;42956;51.366;11.298;2023-07-13T11:15:32;2.90;;;0.85;;
57071;SDS011;42956;51.366;11.298;2023-07-13T11:18:03;1.73;;;0.85;;
57071;SDS011;42956;51.366;11.298;2023-07-13T11:20:35;2.80;;;0.90;;
57071;SDS011;42956;51.366;11.298;2023-07-13T11:23:07;8.40;;;0.95;;
57071;SDS011;42956;51.366;11.298;2023-07-13T11:25:38;2.22;;;1.10;;
57071;SDS011;42956;51.366;11.298;2023-07-13T11:28:21;4.68;;;0.95;;
57071;SDS011;42956;51.366;11.298;2023-07-13T11:31:01;3.38;;;0.80;;
57071;SDS011;42956;51.366;11.298;2023-07-13T11:33:48;3.92;;;1.25;;
57071;SDS011;42956;51.366;11.298;2023-07-13T11:36:19;4.32;;;1.20;;
57071;SDS011;42956;51.366;11.298;2023-07-13T11:38:55;5.40;;;0.80;;
57071;SDS011;42956;51.366;11.298;2023-07-13T11:41:28;7.85;;;0.85;;
57071;SDS011;42956;51.366;11.298;2023-07-13T11:44:10;5.60;;;0.93;;
57071;SDS011;42956;51.366;11.298;2023-07-13T11:46:44;1.90;;;0.95;;
57071;SDS011;42956;51.366;11.298;2023-07-13T11:49:18;3.10;;;1.00;;
57071;SDS011;42956;51.366;11.298;2023-07-13T11:51:50;7.22;;;1.38;;
57071;SDS011;42956;51.366;11.298;2023-07-13T11:54:23;1.73;;;0.93;;
57071;SDS011;42956;51.366;11.298;2023-07-13T11:56:54;2.90;;;1.10;;
57071;SDS011;42956;51.366;11.298;2023-07-13T11:59:27;4.78;;;1.40;;
57071;SDS011;42956;51.366;11.298;2023-07-13T12:01:59;2.60;;;1.23;;
57071;SDS011;42956;51.366;11.298;2023-07-13T12:04:31;2.50;;;1.45;;
57071;SDS011;42956;51.366;11.298;2023-07-13T12:07:07;3.03;;;1.00;;
57071;SDS011;42956;51.366;11.298;2023-07-13T12:09:38;3.78;;;1.10;;
57071;SDS011;42956;51.366;11.298;2023-07-13T12:12:11;2.38;;;0.85;;
57071;SDS011;42956;51.366;11.298;2023-07-13T12:14:44;3.67;;;0.98;;
57071;SDS011;42956;51.366;11.298;2023-07-13T12:19:44;3.22;;;0.90;;
57071;SDS011;42956;51.366;11.298;2023-07-13T12:22:15;2.28;;;1.05;;
57071;SDS011;42956;51.366;11.298;2023-07-13T12:24:47;1.27;;;1.00;;
57071;SDS011;42956;51.366;11.298;2023-07-13T12:27:19;2.85;;;0.77;;
57071;SDS011;42956;51.366;11.298;2023-07-13T12:29:56;1.77;;;1.13;;
57071;SDS011;42956;51.366;11.298;2023-07-13T12:32:26;4.07;;;0.98;;
57071;SDS011;42956;51.366;11.298;2023-07-13T12:35:04;4.38;;;1.17;;
57071;SDS011;42956;51.366;11.298;2023-07-13T12:37:41;1.95;;;0.75;;
57071;SDS011;42956;51.366;11.298;2023-07-13T12:40:13;4.22;;;1.10;;
57071;SDS011;42956;51.366;11.298;2023-07-13T12:42:43;4.15;;;1.02;;
57071;SDS011;42956;51.366;11.298;2023-07-13T12:45:16;2.75;;;1.02;;
57071;SDS011;42956;51.366;11.298;2023-07-13T12:47:48;2.22;;;0.88;;
57071;SDS011;42956;51.366;11.298;2023-07-13T12:50:18;1.30;;;0.93;;
57071;SDS011;42956;51.366;11.298;2023-07-13T12:52:50;1.77;;;0.90;;
57071;SDS011;42956;51.366;11.298;2023-07-13T12:55:21;5.32;;;1.13;;
57071;SDS011;42956;51.366;11.298;2023-07-13T12:57:52;3.42;;;1.17;;
57071;SDS011;42956;51.366;11.298;2023-07-13T13:00:26;3.55;;;1.25;;
57071;SDS011;42956;51.366;11.298;2023-07-13T13:03:02;6.53;;;1.00;;
57071;SDS011;42956;51.366;11.298;2023-07-13T13:05:58;3.00;;;1.25;;
57071;SDS011;42956;51.366;11.298;2023-07-13T13:08:30;5.70;;;1.48;;
57071;SDS011;42956;51.366;11.298;2023-07-13T13:11:00;3.15;;;1.30;;
57071;SDS011;42956;51.366;11.298;2023-07-13T13:13:30;1.30;;;0.73;;
57071;SDS011;42956;51.366;11.298;2023-07-13T13:16:04;1.50;;;0.90;;
57071;SDS011;42956;51.366;11.298;2023-07-13T13:18:39;2.30;;;1.20;;
57071;SDS011;42956;51.366;11.298;2023-07-13T13:21:09;2.38;;;1.58;;
57071;SDS011;42956;51.366;11.298;2023-07-13T13:23:42;6.20;;;1.48;;
57071;SDS011;42956;51.366;11.298;2023-07-13T13:26:13;3.45;;;1.23;;
57071;SDS011;42956;51.366;11.298;2023-07-13T13:28:44;2.33;;;1.30;;
57071;SDS011;42956;51.366;11.298;2023-07-13T13:31:17;5.40;;;1.10;;
57071;SDS011;42956;51.366;11.298;2023-07-13T13:33:47;4.10;;;1.23;;
57071;SDS011;42956;51.366;11.298;2023-07-13T13:36:17;1.50;;;1.17;;
57071;SDS011;42956;51.366;11.298;2023-07-13T13:38:48;1.88;;;0.95;;
57071;SDS011;42956;51.366;11.298;2023-07-13T13:41:19;2.22;;;1.25;;
57071;SDS011;42956;51.366;11.298;2023-07-13T13:43:49;2.67;;;1.00;;
57071;SDS011;42956;51.366;11.298;2023-07-13T13:46:22;1.60;;;1.00;;
57071;SDS011;42956;51.366;11.298;2023-07-13T13:48:57;1.83;;;1.05;;
57071;SDS011;42956;51.366;11.298;2023-07-13T13:51:27;2.92;;;1.05;;
57071;SDS011;42956;51.366;11.298;2023-07-13T13:53:57;1.73;;;0.73;;
57071;SDS011;42956;51.366;11.298;2023-07-13T13:56:28;2.45;;;0.98;;
57071;SDS011;42956;51.366;11.298;2023-07-13T13:59:00;2.42;;;0.93;;
57071;SDS011;42956;51.366;11.298;2023-07-13T14:01:34;1.23;;;0.90;;
57071;SDS011;42956;51.366;11.298;2023-07-13T14:04:05;1.92;;;1.30;;
57071;SDS011;42956;51.366;11.298;2023-07-13T14:06:35;2.63;;;1.00;;
57071;SDS011;42956;51.366;11.298;2023-07-13T14:09:09;2.78;;;1.27;;
57071;SDS011;42956;51.366;11.298;2023-07-13T14:11:39;3.13;;;1.05;;
57071;SDS011;42956;51.366;11.298;2023-07-13T14:14:14;2.63;;;1.42;;
57071;SDS011;42956;51.366;11.298;2023-07-13T14:16:47;4.20;;;1.10;;
57071;SDS011;42956;51.366;11.298;2023-07-13T14:19:21;2.70;;;1.10;;
57071;SDS011;42956;51.366;11.298;2023-07-13T14:21:52;3.95;;;1.27;;
57071;SDS011;42956;51.366;11.298;2023-07-13T14:24:22;2.03;;;1.08;;
57071;SDS011;42956;51.366;11.298;2023-07-13T14:26:52;2.45;;;0.90;;
57071;SDS011;42956;51.366;11.298;2023-07-13T14:29:22;1.85;;;1.10;;
57071;SDS011;42956;51.366;11.298;2023-07-13T14:31:55;3.30;;;1.10;;
57071;SDS011;42956;51.366;11.298;2023-07-13T14:34:25;2.83;;;1.00;;
57071;SDS011;42956;51.366;11.298;2023-07-13T14:36:55;5.05;;;1.25;;
57071;SDS011;42956;51.366;11.298;2023-07-13T14:39:25;3.78;;;1.20;;
57071;SDS011;42956;51.366;11.298;2023-07-13T14:41:55;2.17;;;0.90;;
57071;SDS011;42956;51.366;11.298;2023-07-13T14:44:26;4.25;;;0.98;;
57071;SDS011;42956;51.366;11.298;2023-07-13T14:47:00;1.95;;;1.17;;
57071;SDS011;42956;51.366;11.298;2023-07-13T14:49:32;1.88;;;0.85;;
57071;SDS011;42956;51.366;11.298;2023-07-13T14:52:05;2.05;;;1.25;;
57071;SDS011;42956;51.366;11.298;2023-07-13T14:57:08;3.40;;;1.02;;
57071;SDS011;42956;51.366;11.298;2023-07-13T14:59:39;3.65;;;1.98;;
57071;SDS011;42956;51.366;11.298;2023-07-13T15:02:17;1.30;;;1.00;;
57071;SDS011;42956;51.366;11.298;2023-07-13T15:04:48;4.03;;;1.10;;
57071;SDS011;42956;51.366;11.298;2023-07-13T15:07:18;3.28;;;1.10;;
57071;SDS011;42956;51.366;11.298;2023-07-13T15:09:50;3.53;;;0.98;;
57071;SDS011;42956;51.366;11.298;2023-07-13T15:12:21;2.72;;;1.08;;
57071;SDS011;42956;51.366;11.298;2023-07-13T15:14:51;2.60;;;0.90;;